createdAt,value
2018-09-30T00:03:24.083Z,9.88
2018-09-30T00:08:29.908Z,6.05
2018-09-30T00:13:34.392Z,6.45
2018-09-30T00:18:39.217Z,8.05
2018-09-30T00:23:48.952Z,5.47
2018-09-30T00:28:53.812Z,7.58
2018-09-30T00:34:03.272Z,8.10
2018-09-30T00:39:07.826Z,6.33
2018-09-30T00:44:22.356Z,4.20
2018-09-30T00:49:26.650Z,8.83
2018-09-30T00:54:31.293Z,8.50
2018-09-30T00:59:35.866Z,7.00
2018-09-30T01:04:41.667Z,5.28
2018-09-30T01:09:46.326Z,11.33
2018-09-30T01:14:51.013Z,5.65
2018-09-30T01:19:55.461Z,7.40
2018-09-30T01:24:59.973Z,5.27
2018-09-30T01:30:04.836Z,6.83
2018-09-30T01:35:09.287Z,6.07
2018-09-30T01:40:13.725Z,6.50
2018-09-30T01:45:18.196Z,7.42
2018-09-30T01:50:22.845Z,6.83
2018-09-30T01:55:27.480Z,5.17
2018-09-30T02:00:32.101Z,4.80
2018-09-30T02:05:36.927Z,6.07
2018-09-30T02:10:41.340Z,7.00
2018-09-30T02:15:45.969Z,10.60
2018-09-30T02:20:50.320Z,6.77
2018-09-30T02:25:54.748Z,5.53
2018-09-30T02:30:59.499Z,6.50
2018-09-30T02:36:04.702Z,4.63
2018-09-30T02:41:09.653Z,9.07
2018-09-30T02:46:14.219Z,6.50
2018-09-30T02:51:18.863Z,9.40
2018-09-30T02:56:24.184Z,4.00
2018-09-30T03:01:28.765Z,7.07
2018-09-30T03:06:38.500Z,4.10
2018-09-30T03:11:43.357Z,4.40
2018-09-30T03:16:48.095Z,6.77
2018-09-30T03:21:52.875Z,7.57
2018-09-30T03:26:57.265Z,6.00
2018-09-30T03:32:01.866Z,8.10
2018-09-30T03:37:07.257Z,7.13
2018-09-30T03:42:12.594Z,7.50
2018-09-30T03:47:17.296Z,7.97
2018-09-30T03:52:21.832Z,6.80
2018-09-30T03:57:27.184Z,4.63
2018-09-30T04:02:31.799Z,5.17
2018-09-30T04:07:36.225Z,10.50
2018-09-30T04:12:42.395Z,15.03
2018-09-30T04:17:46.786Z,5.30
2018-09-30T04:22:51.140Z,4.70
2018-09-30T04:27:55.708Z,7.37
2018-09-30T04:33:00.813Z,7.07
2018-09-30T04:38:05.431Z,6.37
2018-09-30T04:43:10.006Z,7.53
2018-09-30T04:48:15.689Z,9.27
2018-09-30T04:53:21.432Z,7.70
2018-09-30T04:58:26.491Z,5.90
2018-09-30T05:03:31.608Z,6.77
2018-09-30T05:08:36.269Z,8.37
2018-09-30T05:13:40.673Z,6.93
2018-09-30T05:18:45.322Z,7.07
2018-09-30T05:23:49.752Z,6.17
2018-09-30T05:28:54.217Z,6.43
2018-09-30T05:33:58.734Z,7.43
2018-09-30T05:39:03.908Z,7.23
2018-09-30T05:44:09.393Z,5.63
2018-09-30T05:49:13.886Z,4.90
2018-09-30T05:54:18.389Z,9.10
2018-09-30T05:59:22.620Z,7.57
2018-09-30T06:04:27.257Z,7.33
2018-09-30T06:09:31.800Z,8.37
2018-09-30T06:14:36.295Z,8.67
2018-09-30T06:19:40.744Z,6.67
2018-09-30T06:24:45.799Z,5.67
2018-09-30T06:29:50.945Z,8.27
2018-09-30T06:34:56.894Z,8.30
2018-09-30T06:40:04.007Z,5.17
2018-09-30T06:45:08.348Z,6.03
2018-09-30T06:50:13.449Z,5.63
2018-09-30T06:55:18.912Z,6.20
2018-09-30T07:00:24.369Z,7.60
2018-09-30T07:05:30.832Z,7.92
2018-09-30T07:10:35.254Z,5.53
2018-09-30T07:15:39.926Z,5.05
2018-09-30T07:20:45.518Z,6.47
2018-09-30T07:25:50.153Z,9.68
2018-09-30T07:30:54.717Z,8.95
2018-09-30T07:36:00.380Z,7.70
2018-09-30T07:41:04.830Z,9.33
2018-09-30T07:46:09.402Z,7.30
2018-09-30T07:51:14.075Z,8.40
2018-09-30T07:56:18.581Z,5.87
2018-09-30T08:01:22.988Z,5.35
2018-09-30T08:06:28.566Z,6.83
2018-09-30T08:11:34.114Z,7.97
2018-09-30T08:16:38.711Z,7.95
2018-09-30T08:21:43.170Z,11.60
2018-09-30T08:26:47.506Z,7.28
2018-09-30T08:31:52.524Z,8.93
2018-09-30T08:36:58.140Z,12.43
2018-09-30T08:42:02.324Z,6.85
2018-09-30T08:47:06.827Z,8.33
2018-09-30T08:52:15.958Z,10.55
2018-09-30T08:57:20.281Z,11.43
2018-09-30T09:02:24.970Z,9.73
2018-09-30T09:07:29.544Z,10.40
2018-09-30T09:12:34.223Z,10.80
2018-09-30T09:17:38.600Z,10.43
2018-09-30T09:22:43.449Z,13.25
2018-09-30T09:27:47.882Z,12.23
2018-09-30T09:32:52.527Z,10.85
2018-09-30T09:37:56.897Z,10.08
2018-09-30T09:43:01.458Z,10.58
2018-09-30T09:48:06.207Z,13.40
2018-09-30T09:53:10.571Z,10.48
2018-09-30T09:58:14.975Z,14.90
2018-09-30T10:03:19.505Z,13.75
2018-09-30T10:08:24.039Z,17.05
2018-09-30T10:13:28.370Z,15.95
2018-09-30T10:18:32.842Z,16.77
2018-09-30T10:23:37.315Z,17.10
2018-09-30T10:28:41.803Z,14.30
2018-09-30T10:33:46.468Z,13.05
2018-09-30T10:38:51.179Z,16.52
2018-09-30T10:43:55.436Z,13.55
2018-09-30T10:48:59.869Z,17.85
2018-09-30T10:54:04.163Z,13.38
2018-09-30T10:59:08.494Z,15.08
2018-09-30T11:04:13.500Z,14.18
2018-09-30T11:09:18.516Z,14.33
2018-09-30T11:14:23.026Z,16.50
2018-09-30T11:19:27.336Z,10.48
2018-09-30T11:24:33.115Z,13.18
2018-09-30T11:29:38.004Z,15.28
2018-09-30T11:34:42.600Z,12.43
2018-09-30T11:39:46.862Z,12.28
2018-09-30T11:44:51.433Z,11.93
2018-09-30T11:49:56.455Z,15.80
2018-09-30T11:55:00.956Z,11.90
2018-09-30T12:00:05.453Z,10.53
2018-09-30T12:05:09.890Z,12.20
2018-09-30T12:10:14.970Z,12.70
2018-09-30T12:15:20.415Z,16.77
2018-09-30T12:20:25.243Z,14.68
2018-09-30T12:25:29.560Z,17.25
2018-09-30T12:30:33.918Z,12.55
2018-09-30T12:35:38.313Z,17.15
2018-09-30T12:40:42.953Z,15.35
2018-09-30T12:45:47.394Z,16.10
2018-09-30T12:50:51.944Z,13.48
2018-09-30T12:55:56.392Z,16.67
2018-09-30T13:01:00.680Z,13.38
2018-09-30T13:06:05.295Z,16.70
2018-09-30T13:11:09.664Z,16.52
2018-09-30T13:16:13.884Z,15.43
2018-09-30T13:21:18.450Z,13.83
2018-09-30T13:26:22.799Z,18.32
2018-09-30T13:31:27.303Z,17.25
2018-09-30T13:36:31.629Z,15.72
2018-09-30T13:41:36.042Z,15.63
2018-09-30T13:46:40.527Z,18.92
2018-09-30T13:51:45.075Z,17.60
2018-09-30T13:56:49.580Z,15.83
2018-09-30T14:01:54.048Z,16.77
2018-09-30T14:06:58.730Z,14.40
2018-09-30T14:12:03.083Z,11.90
2018-09-30T14:17:07.373Z,12.60
2018-09-30T14:22:12.040Z,13.20
2018-09-30T14:27:16.661Z,13.98
2018-09-30T14:32:20.996Z,15.23
2018-09-30T14:37:25.520Z,13.13
2018-09-30T14:42:31.106Z,14.83
2018-09-30T14:47:35.586Z,15.72
2018-09-30T14:52:40.000Z,12.88
2018-09-30T14:57:44.808Z,9.73
2018-09-30T15:02:49.236Z,10.45
2018-09-30T15:07:54.438Z,11.35
2018-09-30T15:12:59.295Z,10.48
2018-09-30T15:18:03.510Z,15.85
2018-09-30T15:23:08.859Z,12.63
2018-09-30T15:28:13.485Z,13.32
2018-09-30T15:33:17.921Z,11.73
2018-09-30T15:38:24.937Z,15.08
2018-09-30T15:43:29.555Z,16.32
2018-09-30T15:48:35.033Z,13.80
2018-09-30T15:53:40.060Z,18.98
2018-09-30T15:58:45.394Z,14.55
2018-09-30T16:03:50.862Z,15.45
2018-09-30T16:08:56.337Z,11.88
2018-09-30T16:14:00.911Z,14.75
2018-09-30T16:19:05.489Z,14.38
2018-09-30T16:24:11.862Z,13.93
2018-09-30T16:29:16.684Z,12.88
2018-09-30T16:34:21.226Z,12.28
2018-09-30T16:39:25.573Z,13.58
2018-09-30T16:44:29.955Z,15.25
2018-09-30T16:49:34.457Z,12.58
2018-09-30T16:54:39.824Z,17.05
2018-09-30T16:59:44.250Z,13.30
2018-09-30T17:04:49.297Z,15.88
2018-09-30T17:09:54.705Z,11.63
2018-09-30T17:14:59.357Z,10.50
2018-09-30T17:20:04.256Z,18.65
2018-09-30T17:25:08.998Z,12.78
2018-09-30T17:30:15.331Z,12.35
2018-09-30T17:35:19.992Z,12.40
2018-09-30T17:40:24.488Z,13.03
2018-09-30T17:45:29.780Z,11.85
2018-09-30T17:50:34.806Z,14.47
2018-09-30T17:55:39.211Z,12.93
2018-09-30T18:00:44.386Z,17.02
2018-09-30T18:05:49.576Z,27.17
2018-09-30T18:10:54.571Z,17.40
2018-09-30T18:15:59.387Z,15.83
2018-09-30T18:21:04.392Z,15.28
2018-09-30T18:26:14.580Z,17.45
2018-09-30T18:31:19.282Z,22.45
2018-09-30T18:36:24.634Z,22.22
2018-09-30T18:41:29.282Z,20.95
2018-09-30T18:46:45.567Z,20.72
2018-09-30T18:51:50.471Z,20.40
2018-09-30T18:56:55.217Z,20.65
2018-09-30T19:02:00.295Z,18.17
2018-09-30T19:07:05.034Z,16.35
2018-09-30T19:12:10.149Z,17.98
2018-09-30T19:17:18.916Z,15.40
2018-09-30T19:22:35.860Z,16.30
2018-09-30T19:27:41.783Z,15.05
2018-09-30T19:32:51.644Z,16.57
2018-09-30T19:37:58.068Z,14.83
2018-09-30T19:43:04.509Z,12.98
2018-09-30T19:48:09.109Z,11.20
2018-09-30T19:53:14.838Z,13.43
2018-09-30T19:58:19.485Z,11.10
2018-09-30T20:03:24.486Z,13.30
2018-09-30T20:08:29.926Z,13.65
2018-09-30T20:13:34.656Z,15.03
2018-09-30T20:18:45.324Z,11.63
2018-09-30T20:23:50.179Z,15.10
2018-09-30T20:28:54.983Z,12.30
2018-09-30T20:33:59.718Z,7.08
2018-09-30T20:39:06.140Z,8.43
2018-09-30T20:44:11.928Z,10.15
2018-09-30T20:49:18.048Z,6.83
2018-09-30T20:54:23.540Z,11.10
2018-09-30T20:59:29.030Z,10.30
2018-09-30T21:04:35.958Z,14.95
2018-09-30T21:09:41.857Z,11.00
2018-09-30T21:14:48.292Z,13.85
2018-09-30T21:19:53.889Z,15.15
2018-09-30T21:25:00.660Z,14.80
2018-09-30T21:30:12.151Z,10.98
2018-09-30T21:35:19.673Z,9.70
2018-09-30T21:40:27.933Z,8.75
2018-09-30T21:45:35.948Z,6.05
2018-09-30T21:50:42.902Z,7.75
2018-09-30T21:55:53.915Z,6.42
2018-09-30T22:01:01.710Z,7.00
2018-09-30T22:06:08.306Z,7.12
2018-09-30T22:11:16.638Z,4.20
2018-09-30T22:16:24.322Z,3.35
2018-09-30T22:21:31.669Z,7.05
2018-09-30T22:26:38.780Z,4.25
2018-09-30T22:31:45.175Z,3.20
2018-09-30T22:36:50.876Z,4.50
2018-09-30T22:41:55.590Z,3.20
2018-09-30T22:47:02.066Z,3.52
2018-09-30T22:52:07.681Z,2.05
2018-09-30T22:57:13.398Z,2.52
2018-09-30T23:02:18.800Z,4.72
2018-09-30T23:07:24.507Z,2.77
2018-09-30T23:12:30.139Z,2.30
2018-09-30T23:17:35.853Z,2.42
2018-09-30T23:22:40.369Z,3.25
2018-09-30T23:27:45.728Z,3.27
2018-09-30T23:32:50.123Z,2.67
2018-09-30T23:37:54.677Z,2.50
2018-09-30T23:42:59.598Z,3.77
2018-09-30T23:48:05.559Z,2.40
2018-09-30T23:53:11.764Z,2.47
2018-09-30T23:58:17.531Z,1.98
